Terminal Aerodrome Forecast
Issued by NWS Birmingham, AL

Home | Current Version | Previous Version | Text Only | Print | Product List | Glossary On
Versions: 1 2 3 4 5 6 7 8 9 10 11 12 13 14 15
000
FTUS44 KBMX 021700
TAFBHM
TAF
KBHM 021733Z 0218/0318 36005KT 4SM -SHRA BR OVC008
     FM030300 VRB03KT 2SM BR OVC003
     FM031500 15004KT 5SM BR OVC008=

USA.gov is the U.S. government's official web portal to all federal, state and local government web resources and services.